sensor_id;sensor_type;location;lat;lon;timestamp;pressure;altitude;pressure_sealevel;temperature;humidity
23318;BME280;11831;55.918;37.746;2023-04-06T00:01:26;100053.84;;;6.71;0.00
23318;BME280;11831;55.918;37.746;2023-04-06T00:03:52;100045.88;;;6.71;0.00
23318;BME280;11831;55.918;37.746;2023-04-06T00:06:18;100047.59;;;6.58;0.00
23318;BME280;11831;55.918;37.746;2023-04-06T00:08:44;100046.00;;;6.27;0.00
23318;BME280;11831;55.918;37.746;2023-04-06T00:11:10;100047.06;;;6.47;0.00
23318;BME280;11831;55.918;37.746;2023-04-06T00:13:37;100048.22;;;6.60;0.00
23318;BME280;11831;55.918;37.746;2023-04-06T00:16:03;100044.59;;;6.82;0.00
23318;BME280;11831;55.918;37.746;2023-04-06T00:18:31;100044.28;;;6.56;0.00
23318;BME280;11831;55.918;37.746;2023-04-06T00:20:57;100044.56;;;6.61;0.00
23318;BME280;11831;55.918;37.746;2023-04-06T00:23:23;100040.81;;;6.55;0.00
23318;BME280;11831;55.918;37.746;2023-04-06T00:25:49;100039.00;;;6.41;0.00
23318;BME280;11831;55.918;37.746;2023-04-06T00:28:15;100049.16;;;6.52;0.00
23318;BME280;11831;55.918;37.746;2023-04-06T00:30:41;100043.69;;;6.39;0.00
23318;BME280;11831;55.918;37.746;2023-04-06T00:33:07;100046.16;;;6.40;0.00
23318;BME280;11831;55.918;37.746;2023-04-06T00:35:34;100048.16;;;6.53;0.00
23318;BME280;11831;55.918;37.746;2023-04-06T00:38:00;100049.84;;;6.25;0.00
23318;BME280;11831;55.918;37.746;2023-04-06T00:40:26;100041.25;;;6.22;0.00
23318;BME280;11831;55.918;37.746;2023-04-06T00:42:54;100042.34;;;6.28;0.00
23318;BME280;11831;55.918;37.746;2023-04-06T00:45:20;100050.78;;;6.17;0.00
23318;BME280;11831;55.918;37.746;2023-04-06T00:47:46;100051.03;;;6.07;0.00
23318;BME280;11831;55.918;37.746;2023-04-06T00:50:12;100050.22;;;6.07;0.00
23318;BME280;11831;55.918;37.746;2023-04-06T00:52:39;100041.34;;;6.14;0.00
23318;BME280;11831;55.918;37.746;2023-04-06T00:55:05;100048.31;;;6.15;0.00
23318;BME280;11831;55.918;37.746;2023-04-06T00:57:32;100047.53;;;6.36;0.00
23318;BME280;11831;55.918;37.746;2023-04-06T00:59:58;100045.91;;;6.06;0.00
23318;BME280;11831;55.918;37.746;2023-04-06T01:02:24;100045.56;;;5.94;0.00
23318;BME280;11831;55.918;37.746;2023-04-06T01:04:52;100047.37;;;6.08;0.00
23318;BME280;11831;55.918;37.746;2023-04-06T01:07:18;100042.88;;;6.09;0.00
23318;BME280;11831;55.918;37.746;2023-04-06T01:09:45;100041.63;;;6.19;0.00
23318;BME280;11831;55.918;37.746;2023-04-06T01:12:11;100044.00;;;6.14;0.00
23318;BME280;11831;55.918;37.746;2023-04-06T01:14:37;100037.75;;;6.22;0.00
23318;BME280;11831;55.918;37.746;2023-04-06T01:17:03;100040.25;;;5.94;0.00
23318;BME280;11831;55.918;37.746;2023-04-06T01:19:30;100033.66;;;6.19;0.00
23318;BME280;11831;55.918;37.746;2023-04-06T01:21:56;100029.91;;;5.99;0.00
23318;BME280;11831;55.918;37.746;2023-04-06T01:24:22;100032.84;;;5.89;0.00
23318;BME280;11831;55.918;37.746;2023-04-06T01:26:49;100036.19;;;6.28;0.00
23318;BME280;11831;55.918;37.746;2023-04-06T01:29:15;100040.22;;;6.09;0.00
23318;BME280;11831;55.918;37.746;2023-04-06T01:31:41;100033.00;;;6.17;0.00
23318;BME280;11831;55.918;37.746;2023-04-06T01:34:07;100031.00;;;5.90;0.00
23318;BME280;11831;55.918;37.746;2023-04-06T01:36:33;100043.22;;;5.76;0.00
23318;BME280;11831;55.918;37.746;2023-04-06T01:39:00;100031.84;;;5.90;0.00
23318;BME280;11831;55.918;37.746;2023-04-06T01:41:26;100033.63;;;5.75;0.00
23318;BME280;11831;55.918;37.746;2023-04-06T01:43:52;100033.44;;;5.77;0.00
23318;BME280;11831;55.918;37.746;2023-04-06T01:46:20;100039.16;;;6.03;0.00
23318;BME280;11831;55.918;37.746;2023-04-06T01:48:47;100041.06;;;5.95;0.00
23318;BME280;11831;55.918;37.746;2023-04-06T01:51:13;100035.66;;;5.88;0.00
23318;BME280;11831;55.918;37.746;2023-04-06T01:53:40;100033.94;;;5.95;0.00
23318;BME280;11831;55.918;37.746;2023-04-06T01:56:06;100041.44;;;5.91;0.00
23318;BME280;11831;55.918;37.746;2023-04-06T01:58:32;100037.28;;;5.89;0.00
23318;BME280;11831;55.918;37.746;2023-04-06T02:00:58;100049.47;;;5.83;0.00
23318;BME280;11831;55.918;37.746;2023-04-06T02:03:25;100041.03;;;5.65;0.00
23318;BME280;11831;55.918;37.746;2023-04-06T02:05:51;100053.19;;;5.59;0.00
23318;BME280;11831;55.918;37.746;2023-04-06T02:08:18;100050.16;;;5.77;0.00
23318;BME280;11831;55.918;37.746;2023-04-06T02:10:44;100048.72;;;5.75;0.00
23318;BME280;11831;55.918;37.746;2023-04-06T02:13:10;100052.00;;;5.62;0.00
23318;BME280;11831;55.918;37.746;2023-04-06T02:15:37;100047.16;;;5.66;0.00
23318;BME280;11831;55.918;37.746;2023-04-06T02:18:03;100045.41;;;5.73;0.00
23318;BME280;11831;55.918;37.746;2023-04-06T02:20:29;100040.03;;;5.66;0.00
23318;BME280;11831;55.918;37.746;2023-04-06T02:22:56;100045.88;;;5.61;0.00
23318;BME280;11831;55.918;37.746;2023-04-06T02:25:23;100043.19;;;5.47;0.00
23318;BME280;11831;55.918;37.746;2023-04-06T02:27:50;100054.75;;;5.54;0.00
23318;BME280;11831;55.918;37.746;2023-04-06T02:30:16;100057.16;;;5.41;0.00
23318;BME280;11831;55.918;37.746;2023-04-06T02:32:42;100040.44;;;5.40;0.00
23318;BME280;11831;55.918;37.746;2023-04-06T02:35:08;100055.84;;;4.99;0.00
23318;BME280;11831;55.918;37.746;2023-04-06T02:37:35;100065.13;;;5.41;0.00
23318;BME280;11831;55.918;37.746;2023-04-06T02:40:01;100060.16;;;5.23;0.00
23318;BME280;11831;55.918;37.746;2023-04-06T02:42:27;100060.16;;;5.60;0.00
23318;BME280;11831;55.918;37.746;2023-04-06T02:44:53;100064.59;;;5.45;0.00
23318;BME280;11831;55.918;37.746;2023-04-06T02:47:20;100064.31;;;5.40;0.00
23318;BME280;11831;55.918;37.746;2023-04-06T02:49:46;100062.00;;;5.37;0.00
23318;BME280;11831;55.918;37.746;2023-04-06T02:52:12;100073.38;;;5.46;0.00
23318;BME280;11831;55.918;37.746;2023-04-06T02:54:38;100075.44;;;5.36;0.00
23318;BME280;11831;55.918;37.746;2023-04-06T02:57:04;100075.00;;;5.32;0.00
23318;BME280;11831;55.918;37.746;2023-04-06T02:59:31;100075.25;;;5.60;0.00
23318;BME280;11831;55.918;37.746;2023-04-06T03:01:57;100077.84;;;5.83;0.00
23318;BME280;11831;55.918;37.746;2023-04-06T03:04:24;100079.72;;;5.59;0.00
23318;BME280;11831;55.918;37.746;2023-04-06T03:06:51;100080.09;;;5.56;0.00
23318;BME280;11831;55.918;37.746;2023-04-06T03:09:18;100082.59;;;5.50;0.00
23318;BME280;11831;55.918;37.746;2023-04-06T03:11:44;100081.97;;;5.48;0.00
23318;BME280;11831;55.918;37.746;2023-04-06T03:14:10;100086.31;;;5.64;0.00
23318;BME280;11831;55.918;37.746;2023-04-06T03:16:36;100087.06;;;5.35;0.00
23318;BME280;11831;55.918;37.746;2023-04-06T03:19:02;100085.50;;;5.40;0.00
23318;BME280;11831;55.918;37.746;2023-04-06T03:21:30;100083.19;;;5.60;0.00
23318;BME280;11831;55.918;37.746;2023-04-06T03:23:56;100081.19;;;5.62;0.00
23318;BME280;11831;55.918;37.746;2023-04-06T03:26:22;100080.25;;;5.55;0.00
23318;BME280;11831;55.918;37.746;2023-04-06T03:28:48;100080.97;;;5.49;0.00
23318;BME280;11831;55.918;37.746;2023-04-06T03:31:15;100089.00;;;5.18;0.00
23318;BME280;11831;55.918;37.746;2023-04-06T03:33:41;100080.72;;;5.58;0.00
23318;BME280;11831;55.918;37.746;2023-04-06T03:36:08;100084.56;;;5.56;0.00
23318;BME280;11831;55.918;37.746;2023-04-06T03:38:34;100077.91;;;5.37;0.00
23318;BME280;11831;55.918;37.746;2023-04-06T03:41:01;100092.53;;;5.56;0.00
23318;BME280;11831;55.918;37.746;2023-04-06T03:43:27;100094.28;;;5.64;0.00
23318;BME280;11831;55.918;37.746;2023-04-06T03:45:53;100105.44;;;5.74;0.00
23318;BME280;11831;55.918;37.746;2023-04-06T03:48:19;100102.38;;;5.85;0.00
23318;BME280;11831;55.918;37.746;2023-04-06T03:50:45;100102.59;;;5.98;0.00
23318;BME280;11831;55.918;37.746;2023-04-06T03:53:12;100110.38;;;6.00;0.00
23318;BME280;11831;55.918;37.746;2023-04-06T03:55:38;100107.78;;;6.36;0.00
23318;BME280;11831;55.918;37.746;2023-04-06T03:58:04;100103.59;;;6.27;0.00
23318;BME280;11831;55.918;37.746;2023-04-06T04:00:30;100114.19;;;6.12;0.00
23318;BME280;11831;55.918;37.746;2023-04-06T04:02:58;100115.41;;;6.24;0.00
23318;BME280;11831;55.918;37.746;2023-04-06T04:05:25;100115.16;;;6.19;0.00
23318;BME280;11831;55.918;37.746;2023-04-06T04:07:51;100120.78;;;5.86;0.00
23318;BME280;11831;55.918;37.746;2023-04-06T04:10:18;100123.00;;;6.27;0.00
23318;BME280;11831;55.918;37.746;2023-04-06T04:12:44;100124.91;;;6.63;0.00
23318;BME280;11831;55.918;37.746;2023-04-06T04:15:10;100126.97;;;6.16;0.00
23318;BME280;11831;55.918;37.746;2023-04-06T04:17:37;100131.06;;;6.48;0.00
23318;BME280;11831;55.918;37.746;2023-04-06T04:20:03;100134.53;;;6.78;0.00
23318;BME280;11831;55.918;37.746;2023-04-06T04:22:29;100141.19;;;6.89;0.00
23318;BME280;11831;55.918;37.746;2023-04-06T04:24:56;100124.56;;;6.51;0.00
23318;BME280;11831;55.918;37.746;2023-04-06T04:27:22;100134.88;;;7.11;0.00
23318;BME280;11831;55.918;37.746;2023-04-06T04:29:48;100133.62;;;7.07;0.00
23318;BME280;11831;55.918;37.746;2023-04-06T04:32:14;100119.16;;;6.95;0.00
23318;BME280;11831;55.918;37.746;2023-04-06T04:34:40;100124.03;;;6.92;0.00
23318;BME280;11831;55.918;37.746;2023-04-06T04:37:06;100120.56;;;7.34;0.00
23318;BME280;11831;55.918;37.746;2023-04-06T04:39:33;100135.59;;;7.41;0.00
23318;BME280;11831;55.918;37.746;2023-04-06T04:41:59;100126.66;;;7.70;0.00
23318;BME280;11831;55.918;37.746;2023-04-06T04:44:26;100124.94;;;7.20;0.00
23318;BME280;11831;55.918;37.746;2023-04-06T04:46:52;100134.25;;;7.31;0.00
23318;BME280;11831;55.918;37.746;2023-04-06T04:49:18;100133.50;;;7.37;0.00
23318;BME280;11831;55.918;37.746;2023-04-06T04:51:44;100124.56;;;7.66;0.00
23318;BME280;11831;55.918;37.746;2023-04-06T04:54:10;100133.28;;;7.81;0.00
23318;BME280;11831;55.918;37.746;2023-04-06T04:56:36;100133.22;;;7.74;0.00
23318;BME280;11831;55.918;37.746;2023-04-06T04:59:03;100131.25;;;7.62;0.00
23318;BME280;11831;55.918;37.746;2023-04-06T05:01:29;100140.47;;;7.87;0.00
23318;BME280;11831;55.918;37.746;2023-04-06T05:03:56;100134.63;;;7.70;0.00
23318;BME280;11831;55.918;37.746;2023-04-06T05:06:22;100142.88;;;7.54;0.00
23318;BME280;11831;55.918;37.746;2023-04-06T05:08:48;100141.22;;;7.74;0.00
23318;BME280;11831;55.918;37.746;2023-04-06T05:11:14;100141.59;;;8.27;0.00
23318;BME280;11831;55.918;37.746;2023-04-06T05:13:40;100149.09;;;8.17;0.00
23318;BME280;11831;55.918;37.746;2023-04-06T05:16:07;100144.31;;;8.06;0.00
23318;BME280;11831;55.918;37.746;2023-04-06T05:18:33;100137.97;;;8.35;0.00
23318;BME280;11831;55.918;37.746;2023-04-06T05:20:59;100142.13;;;8.44;0.00
23318;BME280;11831;55.918;37.746;2023-04-06T05:23:26;100142.47;;;8.34;0.00
23318;BME280;11831;55.918;37.746;2023-04-06T05:25:52;100137.97;;;8.07;0.00
23318;BME280;11831;55.918;37.746;2023-04-06T05:28:18;100136.69;;;7.96;0.00
23318;BME280;11831;55.918;37.746;2023-04-06T05:30:44;100140.28;;;8.45;0.00
23318;BME280;11831;55.918;37.746;2023-04-06T05:33:11;100136.91;;;8.64;0.00
23318;BME280;11831;55.918;37.746;2023-04-06T05:35:38;100134.97;;;8.51;0.00
23318;BME280;11831;55.918;37.746;2023-04-06T05:38:07;100147.16;;;8.67;0.00
23318;BME280;11831;55.918;37.746;2023-04-06T05:40:33;100133.28;;;8.85;0.00
23318;BME280;11831;55.918;37.746;2023-04-06T05:42:59;100139.44;;;8.44;0.00
23318;BME280;11831;55.918;37.746;2023-04-06T05:45:26;100139.38;;;8.72;0.00
23318;BME280;11831;55.918;37.746;2023-04-06T05:47:52;100135.16;;;8.50;0.00
23318;BME280;11831;55.918;37.746;2023-04-06T05:50:18;100138.16;;;8.68;0.00
23318;BME280;11831;55.918;37.746;2023-04-06T05:52:44;100140.81;;;9.42;0.00
23318;BME280;11831;55.918;37.746;2023-04-06T05:55:12;100142.06;;;9.53;0.00
23318;BME280;11831;55.918;37.746;2023-04-06T05:57:39;100141.34;;;9.05;0.00
23318;BME280;11831;55.918;37.746;2023-04-06T06:00:05;100140.22;;;9.73;0.00
23318;BME280;11831;55.918;37.746;2023-04-06T06:02:38;100140.59;;;9.24;0.00
23318;BME280;11831;55.918;37.746;2023-04-06T06:05:05;100144.75;;;9.86;0.00
23318;BME280;11831;55.918;37.746;2023-04-06T06:07:32;100142.69;;;9.68;0.00
23318;BME280;11831;55.918;37.746;2023-04-06T06:09:58;100139.59;;;9.64;0.00
23318;BME280;11831;55.918;37.746;2023-04-06T06:12:25;100144.53;;;9.87;0.00
23318;BME280;11831;55.918;37.746;2023-04-06T06:14:51;100136.53;;;9.94;0.00
23318;BME280;11831;55.918;37.746;2023-04-06T06:17:17;100136.13;;;9.90;0.00
23318;BME280;11831;55.918;37.746;2023-04-06T06:19:43;100133.41;;;10.30;0.00
23318;BME280;11831;55.918;37.746;2023-04-06T06:22:09;100138.78;;;10.10;0.00
23318;BME280;11831;55.918;37.746;2023-04-06T06:24:36;100136.47;;;10.34;0.00
23318;BME280;11831;55.918;37.746;2023-04-06T06:27:02;100137.53;;;10.06;0.00
23318;BME280;11831;55.918;37.746;2023-04-06T06:29:28;100128.91;;;10.17;0.00
23318;BME280;11831;55.918;37.746;2023-04-06T06:31:54;100135.91;;;10.12;0.00
23318;BME280;11831;55.918;37.746;2023-04-06T06:34:20;100143.88;;;10.45;0.00
23318;BME280;11831;55.918;37.746;2023-04-06T06:36:47;100143.22;;;10.56;0.00
23318;BME280;11831;55.918;37.746;2023-04-06T06:39:13;100137.53;;;10.26;0.00
23318;BME280;11831;55.918;37.746;2023-04-06T06:41:39;100136.50;;;10.92;0.00
23318;BME280;11831;55.918;37.746;2023-04-06T06:44:06;100147.78;;;10.49;0.00
23318;BME280;11831;55.918;37.746;2023-04-06T06:46:32;100140.44;;;10.82;0.00
23318;BME280;11831;55.918;37.746;2023-04-06T06:48:58;100145.34;;;11.30;0.00
23318;BME280;11831;55.918;37.746;2023-04-06T06:51:24;100140.03;;;11.24;0.00
23318;BME280;11831;55.918;37.746;2023-04-06T06:53:51;100139.53;;;11.40;0.00
23318;BME280;11831;55.918;37.746;2023-04-06T06:56:17;100135.00;;;11.40;0.00
23318;BME280;11831;55.918;37.746;2023-04-06T06:58:43;100141.09;;;10.78;0.00
23318;BME280;11831;55.918;37.746;2023-04-06T07:01:09;100139.03;;;11.49;0.00
23318;BME280;11831;55.918;37.746;2023-04-06T07:03:35;100139.91;;;11.43;0.00
23318;BME280;11831;55.918;37.746;2023-04-06T07:06:02;100135.47;;;11.56;0.00
23318;BME280;11831;55.918;37.746;2023-04-06T07:08:29;100139.25;;;11.79;0.00
23318;BME280;11831;55.918;37.746;2023-04-06T07:10:55;100137.81;;;11.77;0.00
23318;BME280;11831;55.918;37.746;2023-04-06T07:13:24;100129.53;;;11.22;0.00
23318;BME280;11831;55.918;37.746;2023-04-06T07:15:52;100130.47;;;11.66;0.00
23318;BME280;11831;55.918;37.746;2023-04-06T07:18:19;100135.94;;;12.27;0.00
23318;BME280;11831;55.918;37.746;2023-04-06T07:20:45;100140.03;;;12.48;0.00
23318;BME280;11831;55.918;37.746;2023-04-06T07:23:11;100132.63;;;11.82;0.00
23318;BME280;11831;55.918;37.746;2023-04-06T07:25:38;100133.16;;;12.16;0.00
23318;BME280;11831;55.918;37.746;2023-04-06T07:28:04;100136.81;;;12.21;0.00
23318;BME280;11831;55.918;37.746;2023-04-06T07:30:30;100129.66;;;12.70;0.00
23318;BME280;11831;55.918;37.746;2023-04-06T07:32:57;100128.63;;;12.53;0.00
23318;BME280;11831;55.918;37.746;2023-04-06T07:35:23;100130.94;;;12.67;0.00
23318;BME280;11831;55.918;37.746;2023-04-06T07:37:50;100126.94;;;12.58;0.00
23318;BME280;11831;55.918;37.746;2023-04-06T07:40:16;100121.31;;;13.26;0.00
23318;BME280;11831;55.918;37.746;2023-04-06T07:42:42;100131.03;;;13.39;0.00
23318;BME280;11831;55.918;37.746;2023-04-06T07:45:09;100124.97;;;13.44;0.00
23318;BME280;11831;55.918;37.746;2023-04-06T07:47:35;100114.91;;;13.09;0.00
23318;BME280;11831;55.918;37.746;2023-04-06T07:50:01;100124.25;;;13.36;0.00
23318;BME280;11831;55.918;37.746;2023-04-06T07:52:29;100133.69;;;13.09;0.00
23318;BME280;11831;55.918;37.746;2023-04-06T07:54:55;100136.03;;;13.05;0.00
23318;BME280;11831;55.918;37.746;2023-04-06T07:57:21;100113.78;;;12.87;0.00
23318;BME280;11831;55.918;37.746;2023-04-06T07:59:48;100124.38;;;13.12;0.00
23318;BME280;11831;55.918;37.746;2023-04-06T08:02:14;100118.50;;;12.73;0.00
23318;BME280;11831;55.918;37.746;2023-04-06T08:04:40;100105.34;;;12.83;0.00
23318;BME280;11831;55.918;37.746;2023-04-06T08:07:06;100112.88;;;13.53;0.00
23318;BME280;11831;55.918;37.746;2023-04-06T08:09:32;100121.78;;;13.88;0.00
23318;BME280;11831;55.918;37.746;2023-04-06T08:11:59;100116.19;;;13.78;0.00
23318;BME280;11831;55.918;37.746;2023-04-06T08:14:25;100118.16;;;13.83;0.00
23318;BME280;11831;55.918;37.746;2023-04-06T08:16:51;100120.84;;;14.18;0.00
23318;BME280;11831;55.918;37.746;2023-04-06T08:19:17;100111.78;;;13.42;0.00
23318;BME280;11831;55.918;37.746;2023-04-06T08:21:45;100105.19;;;13.91;0.00
23318;BME280;11831;55.918;37.746;2023-04-06T08:24:14;100115.47;;;13.94;0.00
23318;BME280;11831;55.918;37.746;2023-04-06T08:26:41;100107.63;;;14.05;0.00
23318;BME280;11831;55.918;37.746;2023-04-06T08:29:07;100104.50;;;13.31;0.00
23318;BME280;11831;55.918;37.746;2023-04-06T08:31:33;100112.13;;;13.34;0.00
23318;BME280;11831;55.918;37.746;2023-04-06T08:34:00;100115.44;;;13.71;0.00
23318;BME280;11831;55.918;37.746;2023-04-06T08:36:26;100102.13;;;13.76;0.00
23318;BME280;11831;55.918;37.746;2023-04-06T08:38:52;100122.37;;;14.49;0.00
23318;BME280;11831;55.918;37.746;2023-04-06T08:41:19;100107.72;;;14.56;0.00
23318;BME280;11831;55.918;37.746;2023-04-06T08:43:47;100111.09;;;15.04;0.00
23318;BME280;11831;55.918;37.746;2023-04-06T08:46:13;100098.72;;;14.51;0.00
23318;BME280;11831;55.918;37.746;2023-04-06T08:48:41;100101.63;;;14.61;0.00
23318;BME280;11831;55.918;37.746;2023-04-06T08:51:08;100105.63;;;15.44;0.00
23318;BME280;11831;55.918;37.746;2023-04-06T08:53:34;100110.06;;;14.93;0.00
23318;BME280;11831;55.918;37.746;2023-04-06T08:56:01;100108.28;;;15.72;0.00
23318;BME280;11831;55.918;37.746;2023-04-06T08:58:28;100113.06;;;16.04;0.00
23318;BME280;11831;55.918;37.746;2023-04-06T09:00:56;100079.75;;;15.93;0.00
23318;BME280;11831;55.918;37.746;2023-04-06T09:03:23;100105.72;;;15.82;0.00
23318;BME280;11831;55.918;37.746;2023-04-06T09:05:49;100104.84;;;15.77;0.00
23318;BME280;11831;55.918;37.746;2023-04-06T09:08:16;100114.06;;;15.98;0.00
23318;BME280;11831;55.918;37.746;2023-04-06T09:10:44;100097.44;;;16.44;0.00
23318;BME280;11831;55.918;37.746;2023-04-06T09:13:11;100106.97;;;15.30;0.00
23318;BME280;11831;55.918;37.746;2023-04-06T09:15:37;100108.22;;;15.56;0.00
23318;BME280;11831;55.918;37.746;2023-04-06T09:18:03;100100.12;;;15.39;0.00
23318;BME280;11831;55.918;37.746;2023-04-06T09:20:29;100097.56;;;15.77;0.00
23318;BME280;11831;55.918;37.746;2023-04-06T09:22:55;100097.97;;;15.69;0.00
23318;BME280;11831;55.918;37.746;2023-04-06T09:25:22;100103.12;;;15.71;0.00
23318;BME280;11831;55.918;37.746;2023-04-06T09:27:57;100098.06;;;15.74;0.00
23318;BME280;11831;55.918;37.746;2023-04-06T09:30:24;100086.94;;;15.88;0.00
23318;BME280;11831;55.918;37.746;2023-04-06T09:32:51;100095.03;;;15.71;0.00
23318;BME280;11831;55.918;37.746;2023-04-06T09:35:18;100102.22;;;15.82;0.00
23318;BME280;11831;55.918;37.746;2023-04-06T09:37:48;100085.19;;;16.37;0.00
23318;BME280;11831;55.918;37.746;2023-04-06T09:40:15;100108.16;;;16.01;0.00
23318;BME280;11831;55.918;37.746;2023-04-06T09:42:45;100077.75;;;16.66;0.00
23318;BME280;11831;55.918;37.746;2023-04-06T09:45:12;100075.63;;;16.68;0.00
23318;BME280;11831;55.918;37.746;2023-04-06T09:47:39;100099.41;;;16.10;0.00
23318;BME280;11831;55.918;37.746;2023-04-06T09:50:06;100091.72;;;16.41;0.00
23318;BME280;11831;55.918;37.746;2023-04-06T09:52:37;100090.19;;;16.67;0.00
23318;BME280;11831;55.918;37.746;2023-04-06T09:55:04;100091.03;;;16.94;0.00
23318;BME280;11831;55.918;37.746;2023-04-06T09:57:37;100084.94;;;17.31;0.00
23318;BME280;11831;55.918;37.746;2023-04-06T10:00:08;100093.56;;;16.79;0.00
23318;BME280;11831;55.918;37.746;2023-04-06T10:05:37;100089.47;;;17.25;0.00
23318;BME280;11831;55.918;37.746;2023-04-06T10:08:07;100088.94;;;17.55;0.00
23318;BME280;11831;55.918;37.746;2023-04-06T10:10:34;100069.31;;;17.11;0.00
23318;BME280;11831;55.918;37.746;2023-04-06T10:13:00;100094.09;;;17.30;0.00
23318;BME280;11831;55.918;37.746;2023-04-06T10:15:28;100100.09;;;17.37;0.00
23318;BME280;11831;55.918;37.746;2023-04-06T10:17:55;100081.63;;;17.24;0.00
23318;BME280;11831;55.918;37.746;2023-04-06T10:22:53;100079.84;;;17.39;0.00
23318;BME280;11831;55.918;37.746;2023-04-06T10:25:26;100088.50;;;17.10;0.00
23318;BME280;11831;55.918;37.746;2023-04-06T10:27:58;100087.38;;;17.64;0.00
23318;BME280;11831;55.918;37.746;2023-04-06T10:30:24;100087.87;;;17.61;0.00
23318;BME280;11831;55.918;37.746;2023-04-06T10:32:51;100088.09;;;16.96;0.00
23318;BME280;11831;55.918;37.746;2023-04-06T10:35:17;100099.50;;;17.30;0.00
23318;BME280;11831;55.918;37.746;2023-04-06T10:37:46;100095.19;;;17.61;0.00
23318;BME280;11831;55.918;37.746;2023-04-06T10:40:23;100072.41;;;17.52;0.00
23318;BME280;11831;55.918;37.746;2023-04-06T10:42:51;100087.00;;;17.51;0.00
23318;BME280;11831;55.918;37.746;2023-04-06T10:45:21;100087.25;;;17.17;0.00
23318;BME280;11831;55.918;37.746;2023-04-06T10:47:48;100096.12;;;18.09;0.00
23318;BME280;11831;55.918;37.746;2023-04-06T10:50:14;100090.25;;;18.27;0.00
23318;BME280;11831;55.918;37.746;2023-04-06T10:52:43;100087.91;;;18.41;0.00
23318;BME280;11831;55.918;37.746;2023-04-06T10:55:09;100095.47;;;19.21;0.00
23318;BME280;11831;55.918;37.746;2023-04-06T10:57:36;100085.94;;;18.93;0.00
23318;BME280;11831;55.918;37.746;2023-04-06T11:00:04;100087.91;;;19.29;0.00
23318;BME280;11831;55.918;37.746;2023-04-06T11:02:30;100076.22;;;19.18;0.00
23318;BME280;11831;55.918;37.746;2023-04-06T11:04:57;100089.28;;;19.92;0.00
23318;BME280;11831;55.918;37.746;2023-04-06T11:07:27;100075.75;;;19.72;0.00
23318;BME280;11831;55.918;37.746;2023-04-06T11:09:55;100090.88;;;20.13;0.00
23318;BME280;11831;55.918;37.746;2023-04-06T11:12:24;100084.06;;;21.74;0.00
23318;BME280;11831;55.918;37.746;2023-04-06T11:14:55;100091.63;;;21.48;0.00
23318;BME280;11831;55.918;37.746;2023-04-06T11:17:28;100091.94;;;22.76;0.00
23318;BME280;11831;55.918;37.746;2023-04-06T11:19:55;100086.88;;;23.26;0.00
23318;BME280;11831;55.918;37.746;2023-04-06T11:22:21;100093.31;;;24.14;0.00
23318;BME280;11831;55.918;37.746;2023-04-06T11:24:47;100082.09;;;23.18;0.00
23318;BME280;11831;55.918;37.746;2023-04-06T11:27:14;100082.16;;;22.94;0.00
23318;BME280;11831;55.918;37.746;2023-04-06T11:29:44;100085.13;;;23.16;0.00
23318;BME280;11831;55.918;37.746;2023-04-06T11:32:20;100080.84;;;23.80;0.00
23318;BME280;11831;55.918;37.746;2023-04-06T11:34:46;100085.16;;;23.68;0.00
23318;BME280;11831;55.918;37.746;2023-04-06T11:37:13;100080.53;;;24.56;0.00
23318;BME280;11831;55.918;37.746;2023-04-06T11:39:54;100082.16;;;25.06;0.00
23318;BME280;11831;55.918;37.746;2023-04-06T11:42:21;100075.75;;;25.69;0.00
23318;BME280;11831;55.918;37.746;2023-04-06T11:44:49;100083.03;;;27.71;38.85
23318;BME280;11831;55.918;37.746;2023-04-06T11:47:15;100081.59;;;28.11;38.47
23318;BME280;11831;55.918;37.746;2023-04-06T11:49:42;100082.50;;;29.33;37.46
23318;BME280;11831;55.918;37.746;2023-04-06T11:52:14;100074.25;;;29.54;35.61
23318;BME280;11831;55.918;37.746;2023-04-06T11:54:40;100074.34;;;28.45;36.37
23318;BME280;11831;55.918;37.746;2023-04-06T11:57:07;100078.88;;;26.47;37.69
23318;BME280;11831;55.918;37.746;2023-04-06T11:59:33;100075.56;;;27.89;37.34
23318;BME280;11831;55.918;37.746;2023-04-06T12:02:03;100084.50;;;28.83;35.01
23318;BME280;11831;55.918;37.746;2023-04-06T12:04:29;100071.37;;;31.34;34.81
23318;BME280;11831;55.918;37.746;2023-04-06T12:06:56;100069.56;;;30.61;33.71
23318;BME280;11831;55.918;37.746;2023-04-06T12:09:22;100067.53;;;29.88;34.15
23318;BME280;11831;55.918;37.746;2023-04-06T12:11:48;100062.56;;;31.72;32.09
23318;BME280;11831;55.918;37.746;2023-04-06T12:14:14;100062.62;;;30.92;33.82
23318;BME280;11831;55.918;37.746;2023-04-06T12:16:41;100053.47;;;29.57;33.06
23318;BME280;11831;55.918;37.746;2023-04-06T12:19:07;100057.84;;;28.07;34.67
23318;BME280;11831;55.918;37.746;2023-04-06T12:21:34;100063.34;;;27.26;35.57
23318;BME280;11831;55.918;37.746;2023-04-06T12:24:03;100057.56;;;28.67;35.06
23318;BME280;11831;55.918;37.746;2023-04-06T12:26:29;100032.97;;;28.03;36.58
23318;BME280;11831;55.918;37.746;2023-04-06T12:28:56;100045.38;;;26.93;36.56
23318;BME280;11831;55.918;37.746;2023-04-06T12:31:22;100046.34;;;27.67;35.72
23318;BME280;11831;55.918;37.746;2023-04-06T12:33:51;100050.56;;;27.47;36.20
23318;BME280;11831;55.918;37.746;2023-04-06T12:36:18;100047.16;;;27.50;36.14
23318;BME280;11831;55.918;37.746;2023-04-06T12:38:45;100049.09;;;28.52;35.92
23318;BME280;11831;55.918;37.746;2023-04-06T12:41:11;100052.00;;;28.55;35.13
23318;BME280;11831;55.918;37.746;2023-04-06T12:43:38;100046.00;;;29.36;33.71
23318;BME280;11831;55.918;37.746;2023-04-06T12:46:05;100045.88;;;30.72;33.03
23318;BME280;11831;55.918;37.746;2023-04-06T12:48:31;100046.19;;;30.83;32.04
23318;BME280;11831;55.918;37.746;2023-04-06T12:50:58;100037.78;;;32.54;30.65
23318;BME280;11831;55.918;37.746;2023-04-06T12:53:24;100053.87;;;32.68;29.58
23318;BME280;11831;55.918;37.746;2023-04-06T12:55:51;100047.63;;;32.71;29.11
23318;BME280;11831;55.918;37.746;2023-04-06T12:58:17;100046.72;;;33.02;31.08